Time;durP1;ratioP1;P1;durP2;ratioP2;P2;SDS_P1;SDS_P2;PMS_P1;PMS_P2;Temp;Humidity;BMP_temperature;BMP_pressure;BME280_temperature;BME280_humidity;BME280_pressure;Samples;Min_cycle;Max_cycle;Signal;HPM_P1;HPM_P2
2022/10/22 00:00:16;;;;;;;11.32;6.25;;;;;;;15.09;100.00;100024.72;8394187;28;20339;-51
2022/10/22 00:04:17;;;;;;;12.00;5.95;;;;;;;15.14;100.00;100035.94;8393135;28;20048;-53
2022/10/22 00:08:18;;;;;;;10.98;5.75;;;;;;;15.16;100.00;100031.13;8393056;28;20514;-50
2022/10/22 00:12:19;;;;;;;15.63;6.53;;;;;;;15.14;100.00;100038.66;8393901;28;20101;-49
2022/10/22 00:16:20;;;;;;;13.10;6.72;;;;;;;15.09;100.00;100037.47;8393431;28;20094;-49
2022/10/22 00:20:21;;;;;;;16.98;5.97;;;;;;;15.19;100.00;100036.22;8393791;28;20032;-52
2022/10/22 00:24:23;;;;;;;12.65;6.18;;;;;;;15.24;100.00;100036.53;8393978;28;20101;-49
2022/10/22 00:28:24;;;;;;;11.32;5.80;;;;;;;15.21;100.00;100039.63;8391164;28;20052;-49
2022/10/22 00:32:24;;;;;;;12.95;6.82;;;;;;;15.24;100.00;100033.81;8388530;28;20043;-49
2022/10/22 00:36:25;;;;;;;12.95;5.88;;;;;;;15.23;100.00;100037.56;8392087;28;20115;-50
2022/10/22 00:40:26;;;;;;;18.83;6.00;;;;;;;15.23;100.00;100036.72;8393109;28;20394;-50
2022/10/22 00:45:06;;;;;;;16.08;6.85;;;;;;;15.22;100.00;100021.41;8393422;28;20040;-49
2022/10/22 00:49:07;;;;;;;15.98;6.47;;;;;;;15.18;100.00;100029.09;8390211;28;20052;-49
2022/10/22 00:53:13;;;;;;;11.70;7.13;;;;;;;15.11;100.00;100022.69;8392131;28;20546;-50
2022/10/22 00:57:16;;;;;;;12.75;6.45;;;;;;;15.14;100.00;100022.31;8393293;28;20056;-49
2022/10/22 01:01:21;;;;;;;11.45;6.03;;;;;;;15.15;100.00;100017.69;8425417;28;20064;-49
2022/10/22 01:05:25;;;;;;;12.40;7.30;;;;;;;15.18;100.00;100018.19;8411166;28;20029;-49
2022/10/22 01:09:53;;;;;;;12.00;6.32;;;;;;;15.23;100.00;100023.94;8392565;28;20121;-49
2022/10/22 01:14:12;;;;;;;11.63;5.95;;;;;;;15.30;100.00;100021.31;8391249;28;20097;-50
2022/10/22 01:18:26;;;;;;;14.23;6.38;;;;;;;15.40;100.00;100024.69;8392046;28;20036;-49
2022/10/22 01:22:33;;;;;;;11.13;6.40;;;;;;;15.42;100.00;100015.31;8390645;28;20036;-49
2022/10/22 01:30:50;;;;;;;12.68;6.28;;;;;;;15.37;100.00;100019.63;8403162;27;20374;-49
2022/10/22 01:34:59;;;;;;;22.48;6.90;;;;;;;15.36;100.00;100007.84;8352550;28;20029;-48
2022/10/22 01:39:01;;;;;;;11.82;6.60;;;;;;;15.38;100.00;100018.56;8352747;28;20049;-49
2022/10/22 01:43:06;;;;;;;15.15;6.97;;;;;;;15.34;100.00;100014.50;8352734;28;20522;-47
2022/10/22 01:47:34;;;;;;;10.18;6.82;;;;;;;15.30;100.00;100011.28;8336208;28;20121;-48
2022/10/22 01:51:50;;;;;;;9.18;6.90;;;;;;;15.14;100.00;100022.31;8344439;28;20060;-49
2022/10/22 01:56:26;;;;;;;17.83;8.23;;;;;;;15.08;100.00;100011.28;8352617;28;20500;-48
2022/10/22 02:00:27;;;;;;;15.30;7.35;;;;;;;15.19;100.00;100019.06;8373294;28;20045;-49
2022/10/22 02:04:34;;;;;;;15.38;6.88;;;;;;;15.27;100.00;100017.09;8375445;28;20041;-48
2022/10/22 02:08:36;;;;;;;14.02;7.05;;;;;;;15.28;100.00;100029.69;8341467;28;20034;-48
2022/10/22 02:12:38;;;;;;;10.60;6.30;;;;;;;15.27;100.00;100027.13;8352207;28;20086;-49
2022/10/22 02:16:43;;;;;;;20.95;7.18;;;;;;;15.24;100.00;100027.50;8352275;28;20090;-49
2022/10/22 02:20:43;;;;;;;13.52;6.95;;;;;;;15.17;100.00;100030.13;8349546;28;20045;-52
2022/10/22 02:24:45;;;;;;;11.43;7.38;;;;;;;15.15;100.00;100029.44;8351945;28;20063;-48
2022/10/22 02:29:02;;;;;;;14.98;8.52;;;;;;;15.23;100.00;100025.81;8340933;28;20040;-49
2022/10/22 02:33:12;;;;;;;13.05;6.95;;;;;;;15.25;100.00;100024.59;8317024;28;20503;-48
2022/10/22 02:37:14;;;;;;;11.40;6.35;;;;;;;15.30;100.00;100022.19;8318963;28;20033;-49
2022/10/22 02:41:17;;;;;;;13.02;6.28;;;;;;;15.42;100.00;100026.19;8301473;28;20041;-47
2022/10/22 02:45:19;;;;;;;9.65;5.80;;;;;;;15.52;100.00;100032.22;8312339;28;20103;-49
2022/10/22 02:49:19;;;;;;;17.17;6.53;;;;;;;15.49;100.00;100027.16;8322083;28;20104;-49
2022/10/22 02:53:20;;;;;;;9.48;6.00;;;;;;;15.15;100.00;100034.91;8327964;28;20157;-49
2022/10/22 02:57:21;;;;;;;11.65;6.30;;;;;;;14.96;100.00;100032.66;8331188;28;20037;-49
2022/10/22 03:01:21;;;;;;;10.48;6.68;;;;;;;14.88;100.00;100031.88;8360322;28;20029;-49
2022/10/22 03:05:22;;;;;;;16.00;7.57;;;;;;;14.91;100.00;100029.63;8346430;28;20469;-49
2022/10/22 03:09:23;;;;;;;18.52;8.30;;;;;;;14.97;100.00;100033.47;8326535;28;20037;-49
2022/10/22 03:13:23;;;;;;;15.48;8.25;;;;;;;14.90;100.00;100041.53;8326869;28;20037;-49
2022/10/22 03:17:24;;;;;;;11.77;7.72;;;;;;;14.92;100.00;100044.94;8327844;28;20464;-49
2022/10/22 03:21:48;;;;;;;14.93;8.13;;;;;;;14.85;100.00;100043.13;8326402;28;20052;-51
2022/10/22 03:25:49;;;;;;;16.90;8.75;;;;;;;14.95;100.00;100039.09;8291457;28;20068;-52
2022/10/22 03:29:51;;;;;;;15.25;8.50;;;;;;;15.02;100.00;100034.66;8337085;28;20056;-49
2022/10/22 03:33:51;;;;;;;15.90;8.18;;;;;;;14.87;100.00;100039.19;8356827;28;20051;-49
2022/10/22 03:37:53;;;;;;;17.02;8.60;;;;;;;14.83;100.00;100045.16;8358119;28;20041;-49
2022/10/22 03:41:54;;;;;;;14.52;9.02;;;;;;;14.74;100.00;100047.09;8332053;28;20041;-49
2022/10/22 03:45:55;;;;;;;14.77;8.80;;;;;;;14.73;100.00;100050.00;8327122;28;20048;-49
2022/10/22 03:49:56;;;;;;;16.67;9.20;;;;;;;14.40;100.00;100049.28;8322709;28;20503;-48
2022/10/22 03:53:56;;;;;;;15.32;8.93;;;;;;;14.45;100.00;100052.31;8325359;28;20038;-48
2022/10/22 03:57:57;;;;;;;17.00;9.18;;;;;;;14.48;100.00;100057.41;8333977;28;20033;-48
2022/10/22 04:01:57;;;;;;;16.65;8.73;;;;;;;14.65;100.00;100058.19;8358011;28;20120;-50
2022/10/22 04:06:03;;;;;;;15.98;8.25;;;;;;;14.72;100.00;100059.16;8338260;28;20574;-49
2022/10/22 04:10:04;;;;;;;18.20;9.48;;;;;;;14.76;100.00;100071.41;8292232;28;20052;-50
2022/10/22 04:14:05;;;;;;;16.48;9.10;;;;;;;14.80;100.00;100068.16;8322669;28;20064;-52
2022/10/22 04:18:06;;;;;;;17.38;9.00;;;;;;;14.73;100.00;100091.63;8317539;28;20049;-48
2022/10/22 04:22:06;;;;;;;17.75;9.35;;;;;;;14.55;100.00;100085.59;8323717;28;20037;-49
2022/10/22 04:26:07;;;;;;;17.23;9.55;;;;;;;14.60;100.00;100088.63;8325731;28;20041;-48
2022/10/22 04:30:08;;;;;;;19.08;10.30;;;;;;;14.51;100.00;100097.84;8350865;28;20110;-49
2022/10/22 04:34:08;;;;;;;13.75;9.80;;;;;;;14.43;100.00;100100.63;8358523;28;20110;-49
2022/10/22 04:38:09;;;;;;;14.88;9.32;;;;;;;14.37;100.00;100109.47;8358191;28;20040;-49
2022/10/22 04:42:11;;;;;;;18.60;9.45;;;;;;;14.21;100.00;100103.19;8356603;28;20047;-52
2022/10/22 04:46:14;;;;;;;19.00;10.23;;;;;;;14.13;100.00;100106.78;8336893;28;20125;-52
2022/10/22 04:50:15;;;;;;;18.20;10.25;;;;;;;14.01;100.00;100107.31;8324114;28;20041;-49
2022/10/22 04:54:15;;;;;;;18.00;10.05;;;;;;;13.76;100.00;100103.78;8323315;28;20410;-50
2022/10/22 04:58:16;;;;;;;19.17;10.57;;;;;;;13.52;100.00;100099.22;8333221;28;20053;-50
2022/10/22 05:02:16;;;;;;;13.98;9.35;;;;;;;13.54;100.00;100110.75;8342438;28;20107;-48
2022/10/22 05:06:19;;;;;;;14.50;10.05;;;;;;;13.66;100.00;100105.81;8324116;28;20095;-48
2022/10/22 05:10:20;;;;;;;17.40;10.45;;;;;;;13.75;100.00;100118.38;8324466;28;20225;-48
2022/10/22 05:14:23;;;;;;;19.25;10.48;;;;;;;13.82;100.00;100127.56;8325128;28;20041;-48
2022/10/22 05:18:23;;;;;;;19.02;10.40;;;;;;;13.93;100.00;100126.38;8323867;28;20041;-48
2022/10/22 05:22:24;;;;;;;16.98;9.77;;;;;;;13.60;100.00;100130.94;8322960;28;20502;-49
2022/10/22 05:26:26;;;;;;;13.80;8.88;;;;;;;13.11;100.00;100130.03;8323659;28;20124;-49
2022/10/22 05:30:27;;;;;;;20.13;9.75;;;;;;;13.30;100.00;100139.75;8339395;28;20494;-48
2022/10/22 05:34:27;;;;;;;15.82;8.82;;;;;;;12.98;100.00;100142.34;8324144;28;20513;-48
2022/10/22 05:38:28;;;;;;;17.30;10.20;;;;;;;13.33;100.00;100156.53;8319373;28;20518;-49
2022/10/22 05:42:31;;;;;;;15.32;9.55;;;;;;;13.01;100.00;100158.31;8321659;28;20507;-48
2022/10/22 05:46:34;;;;;;;21.35;10.40;;;;;;;13.15;100.00;100165.84;8330011;28;20037;-48
2022/10/22 05:50:36;;;;;;;21.95;10.10;;;;;;;12.99;100.00;100173.91;8313811;28;20038;-49
2022/10/22 05:54:37;;;;;;;91.60;11.65;;;;;;;12.91;100.00;100168.44;8292266;28;20122;-48
2022/10/22 05:58:38;;;;;;;20.20;10.10;;;;;;;13.01;100.00;100185.47;8299628;28;20430;-48
2022/10/22 06:02:39;;;;;;;15.20;9.60;;;;;;;12.71;100.00;100183.25;8322401;28;20034;-50
2022/10/22 06:06:43;;;;;;;19.50;10.00;;;;;;;12.86;100.00;100192.50;8324203;28;20034;-49
2022/10/22 06:10:44;;;;;;;23.95;9.45;;;;;;;12.91;100.00;100188.28;8309615;28;20467;-48
2022/10/22 06:14:45;;;;;;;19.00;7.47;;;;;;;13.22;100.00;100197.59;8317520;28;20087;-48
2022/10/22 06:18:45;;;;;;;15.35;7.28;;;;;;;13.46;100.00;100204.94;8316298;28;20033;-49
2022/10/22 06:22:47;;;;;;;14.80;6.75;;;;;;;13.61;100.00;100197.84;8325519;28;20072;-49
2022/10/22 06:26:50;;;;;;;10.07;5.60;;;;;;;13.59;100.00;100216.16;8327220;28;20041;-49
2022/10/22 06:30:51;;;;;;;9.07;5.07;;;;;;;13.64;100.00;100208.38;8356899;28;20494;-48
2022/10/22 06:34:51;;;;;;;10.68;6.07;;;;;;;13.64;100.00;100219.25;8327348;28;20268;-48
2022/10/22 06:38:53;;;;;;;10.55;5.47;;;;;;;13.71;100.00;100225.69;8297825;28;20042;-48
2022/10/22 06:42:54;;;;;;;5.47;4.00;;;;;;;13.79;100.00;100226.53;8322347;28;20041;-49
2022/10/22 06:46:55;;;;;;;10.32;3.60;;;;;;;13.95;100.00;100233.00;8316518;28;20045;-49
2022/10/22 06:51:00;;;;;;;11.10;3.53;;;;;;;14.14;100.00;100233.53;8302944;28;20594;-48
2022/10/22 06:55:01;;;;;;;9.93;4.60;;;;;;;14.34;100.00;100234.94;8304712;28;20491;-49
2022/10/22 06:59:02;;;;;;;12.80;3.55;;;;;;;14.60;100.00;100246.44;8302354;28;20691;-49
2022/10/22 07:03:03;;;;;;;8.55;4.20;;;;;;;14.93;100.00;100249.91;8293691;28;20521;-52
2022/10/22 07:07:03;;;;;;;10.75;2.22;;;;;;;15.23;100.00;100255.44;8319133;28;20443;-51
2022/10/22 07:11:08;;;;;;;5.10;2.28;;;;;;;15.40;100.00;100259.81;8325762;28;20045;-51
2022/10/22 07:15:09;;;;;;;10.18;2.30;;;;;;;15.65;100.00;100266.81;8327688;28;20033;-49
2022/10/22 07:19:09;;;;;;;4.05;1.77;;;;;;;15.82;100.00;100272.19;8323022;28;20038;-49
2022/10/22 07:23:10;;;;;;;6.55;2.10;;;;;;;15.99;100.00;100284.69;8325046;28;20124;-50
2022/10/22 07:27:10;;;;;;;5.10;2.35;;;;;;;16.13;100.00;100286.63;8325918;28;20034;-50
2022/10/22 07:31:13;;;;;;;15.35;6.18;;;;;;;15.71;100.00;100298.81;8318485;28;20041;-49
2022/10/22 07:35:13;;;;;;;7.38;5.45;;;;;;;15.41;100.00;100307.81;8325497;28;20383;-49
2022/10/22 07:39:14;;;;;;;12.40;7.63;;;;;;;15.25;100.00;100307.84;8325919;28;20128;-49
2022/10/22 07:43:14;;;;;;;16.95;7.03;;;;;;;15.31;100.00;100311.75;8313585;28;20045;-50
2022/10/22 07:47:15;;;;;;;23.67;5.80;;;;;;;15.46;100.00;100327.22;8320443;28;20048;-49
2022/10/22 07:51:16;;;;;;;7.57;3.05;;;;;;;15.58;100.00;100338.56;8324792;28;20076;-49
2022/10/22 07:55:17;;;;;;;12.50;4.78;;;;;;;15.67;100.00;100341.09;8301452;28;20057;-49
2022/10/22 07:59:17;;;;;;;7.50;3.20;;;;;;;15.87;100.00;100344.22;8292043;28;20074;-50
2022/10/22 08:03:18;;;;;;;5.43;2.80;;;;;;;15.98;100.00;100345.72;8290081;28;20049;-49
2022/10/22 08:07:19;;;;;;;11.63;2.60;;;;;;;16.11;100.00;100362.31;8289399;28;20534;-48
2022/10/22 08:11:19;;;;;;;5.93;2.17;;;;;;;16.25;100.00;100361.56;8315084;28;20048;-52
2022/10/22 08:15:22;;;;;;;9.80;2.35;;;;;;;16.45;100.00;100363.66;8324244;28;20044;-49
2022/10/22 08:19:22;;;;;;;7.82;1.60;;;;;;;16.61;100.00;100374.44;8321954;28;20040;-51
2022/10/22 08:23:23;;;;;;;9.70;1.60;;;;;;;16.87;100.00;100374.91;8324005;28;20117;-53
2022/10/22 08:27:24;;;;;;;11.30;1.77;;;;;;;16.88;100.00;100381.22;8321062;28;20046;-49
2022/10/22 08:31:24;;;;;;;6.03;1.58;;;;;;;16.89;100.00;100393.81;8309697;28;20045;-50
2022/10/22 08:35:25;;;;;;;13.18;1.70;;;;;;;16.96;100.00;100397.53;8322680;28;20064;-49
2022/10/22 08:39:26;;;;;;;13.10;2.00;;;;;;;17.07;100.00;100388.88;8323980;28;20044;-49
2022/10/22 08:43:47;;;;;;;6.78;1.58;;;;;;;17.22;100.00;100397.97;8322445;28;20494;-51
2022/10/22 08:48:18;;;;;;;4.55;1.20;;;;;;;17.21;100.00;100410.78;8320288;28;20490;-50
2022/10/22 08:52:19;;;;;;;10.57;1.55;;;;;;;17.23;100.00;100411.44;8291349;28;20527;-49
2022/10/22 08:56:22;;;;;;;9.05;1.60;;;;;;;17.24;100.00;100420.50;8288451;28;20029;-52
2022/10/22 09:00:32;;;;;;;11.93;1.50;;;;;;;17.30;100.00;100419.75;8290489;28;20064;-49
2022/10/22 09:04:44;;;;;;;7.10;1.48;;;;;;;17.31;100.00;100422.31;8324583;28;20486;-49
2022/10/22 09:08:46;;;;;;;13.25;1.90;;;;;;;17.41;99.56;100427.47;8337531;28;20033;-53
2022/10/22 09:12:47;;;;;;;7.07;1.00;;;;;;;17.45;98.51;100431.59;8318724;28;20524;-49
2022/10/22 09:17:27;;;;;;;8.27;1.75;;;;;;;17.38;98.65;100433.31;8328204;28;20045;-49
2022/10/22 09:26:01;;;;;;;4.78;1.38;;;;;;;17.48;96.87;100428.47;8477269;27;20496;-51
2022/10/22 09:30:01;;;;;;;5.20;1.25;;;;;;;17.44;98.58;100443.53;8462385;27;20031;-52
2022/10/22 09:34:06;;;;;;;7.07;1.00;;;;;;;17.35;99.81;100444.63;8460623;27;20067;-49
2022/10/22 09:38:07;;;;;;;3.75;1.20;;;;;;;17.31;100.00;100452.34;8465495;27;20053;-49
2022/10/22 09:42:16;;;;;;;5.65;1.98;;;;;;;17.33;100.00;100452.16;8453472;27;20040;-51
2022/10/22 09:46:19;;;;;;;5.35;1.10;;;;;;;17.35;99.59;100450.09;8448389;28;20048;-48
2022/10/22 09:50:43;;;;;;;8.00;1.10;;;;;;;17.50;96.77;100453.72;8447496;28;20123;-48
2022/10/22 09:54:43;;;;;;;7.37;1.90;;;;;;;17.57;93.00;100460.16;8446429;28;20036;-49
2022/10/22 09:58:49;;;;;;;4.85;0.70;;;;;;;17.62;92.28;100456.88;8449428;27;20083;-51
2022/10/22 10:02:54;;;;;;;2.35;0.70;;;;;;;17.63;92.96;100470.34;8447571;27;20126;-50
2022/10/22 10:06:55;;;;;;;6.35;1.33;;;;;;;17.63;93.36;100485.91;8448329;27;20043;-49
2022/10/22 10:11:01;;;;;;;4.85;0.80;;;;;;;17.58;94.13;100491.94;8446713;28;20067;-49
2022/10/22 10:15:23;;;;;;;6.10;1.38;;;;;;;17.58;93.93;100490.06;8446747;28;20042;-49
2022/10/22 10:20:03;;;;;;;3.58;0.75;;;;;;;17.53;94.36;100497.94;8433341;28;20067;-50
2022/10/22 10:24:23;;;;;;;5.40;1.52;;;;;;;17.44;96.32;100503.66;8422951;28;20433;-50
2022/10/22 10:33:21;;;;;;;6.40;1.40;;;;;;;17.52;96.25;100517.28;8427239;27;20777;-52
2022/10/22 10:37:26;;;;;;;8.95;1.50;;;;;;;17.57;93.70;100512.13;8386880;28;20266;-49
2022/10/22 10:41:37;;;;;;;9.73;1.40;;;;;;;17.64;91.63;100518.53;8388295;28;20742;-49
2022/10/22 10:45:53;;;;;;;6.80;1.00;;;;;;;17.64;92.77;100526.72;8387770;28;20466;-52
2022/10/22 10:50:10;;;;;;;4.85;0.90;;;;;;;17.73;92.12;100522.03;8380119;28;20405;-51
2022/10/22 10:54:30;;;;;;;9.20;1.23;;;;;;;17.80;90.88;100515.63;8382652;28;20037;-52
2022/10/22 10:58:44;;;;;;;3.97;0.70;;;;;;;17.80;90.54;100522.97;8379668;28;20037;-52
2022/10/22 11:03:24;;;;;;;5.03;0.80;;;;;;;17.85;89.85;100517.81;8380950;28;20037;-49
2022/10/22 11:07:33;;;;;;;5.57;0.70;;;;;;;17.90;90.40;100527.13;8380858;28;20072;-48
2022/10/22 11:11:42;;;;;;;3.20;0.57;;;;;;;17.93;90.70;100521.28;8366277;28;20086;-50
2022/10/22 11:15:49;;;;;;;9.75;0.80;;;;;;;17.92;90.64;100526.94;8381594;28;20110;-49
2022/10/22 11:20:01;;;;;;;2.50;0.55;;;;;;;17.92;90.71;100533.28;8378346;28;20130;-50
2022/10/22 11:24:15;;;;;;;3.90;1.20;;;;;;;17.93;90.80;100532.22;8381580;28;20057;-52
2022/10/22 11:28:20;;;;;;;;;;;;;;;17.96;88.34;100525.56;8379826;28;20059;-49
2022/10/22 11:32:25;;;;;;;5.28;1.48;;;;;;;17.98;88.79;100529.78;8375641;28;20008;-52
2022/10/22 11:36:27;;;;;;;5.85;2.10;;;;;;;18.10;89.15;100533.75;8380299;28;20048;-49
2022/10/22 11:40:33;;;;;;;7.10;2.25;;;;;;;18.08;90.20;100529.53;8379911;28;20036;-49
2022/10/22 11:44:46;;;;;;;7.05;0.88;;;;;;;18.15;89.77;100531.31;8351938;28;20037;-50
2022/10/22 11:53:30;;;;;;;4.32;0.77;;;;;;;18.07;89.09;100527.81;8457272;27;20116;-48
2022/10/22 11:57:38;;;;;;;6.05;1.10;;;;;;;18.18;88.81;100530.94;8434501;28;20556;-51
2022/10/22 12:02:18;;;;;;;4.05;0.70;;;;;;;18.42;88.58;100527.09;8447798;27;20112;-49
2022/10/22 12:06:22;;;;;;;4.82;0.80;;;;;;;18.80;87.48;100521.25;8441795;28;20044;-49
2022/10/22 12:10:33;;;;;;;2.33;0.83;;;;;;;18.93;86.56;100515.91;8445153;28;20043;-50
2022/10/22 12:14:51;;;;;;;6.40;0.88;;;;;;;19.09;85.70;100520.28;8448116;28;20105;-51
2022/10/22 12:19:00;;;;;;;2.92;0.60;;;;;;;20.06;78.84;100506.56;8440476;28;20621;-50
2022/10/22 12:23:01;;;;;;;4.00;0.77;;;;;;;20.25;77.85;100502.28;8424177;28;20047;-49
2022/10/22 12:27:02;;;;;;;1.60;0.68;;;;;;;21.87;72.11;100492.72;8425480;28;20084;-50
2022/10/22 12:31:03;;;;;;;3.33;0.57;;;;;;;21.83;71.96;100497.78;8448813;28;20032;-51
2022/10/22 12:35:07;;;;;;;7.20;1.27;;;;;;;22.14;70.98;100489.66;8430342;27;20067;-50
2022/10/22 12:39:12;;;;;;;1.10;0.32;;;;;;;23.03;68.02;100494.19;8436687;27;20052;-49
2022/10/22 12:43:16;;;;;;;6.13;0.70;;;;;;;21.36;71.75;100495.22;8439729;28;20034;-52
2022/10/22 12:47:17;;;;;;;3.40;0.60;;;;;;;20.40;75.70;100490.09;8437092;28;20536;-51
2022/10/22 12:51:19;;;;;;;3.72;0.60;;;;;;;20.43;75.58;100488.84;8441620;28;20058;-49
2022/10/22 12:55:24;;;;;;;3.67;0.50;;;;;;;20.73;76.88;100484.72;8434091;28;20036;-50
2022/10/22 12:59:34;;;;;;;5.18;0.63;;;;;;;20.90;75.57;100480.53;8431616;28;20060;-50
2022/10/22 13:03:39;;;;;;;3.80;0.55;;;;;;;20.67;75.26;100483.63;8416971;28;20500;-52
2022/10/22 13:07:45;;;;;;;4.70;1.92;;;;;;;20.24;77.84;100484.09;8404798;28;20036;-50
2022/10/22 13:11:50;;;;;;;3.72;0.75;;;;;;;20.11;78.37;100475.75;8414884;28;20515;-50
2022/10/22 13:15:51;;;;;;;2.45;0.77;;;;;;;19.97;78.63;100482.22;8419633;28;20036;-49
2022/10/22 13:24:21;;;;;;;3.83;1.38;;;;;;;20.36;78.02;100468.72;8460012;27;20144;-49
2022/10/22 13:28:23;;;;;;;2.97;1.00;;;;;;;20.20;78.56;100471.81;8442518;27;20037;-52
2022/10/22 13:32:29;;;;;;;4.75;0.77;;;;;;;20.51;77.29;100477.66;8436816;28;20351;-49
2022/10/22 13:36:30;;;;;;;3.97;0.77;;;;;;;20.44;77.90;100474.06;8446793;27;20565;-50
2022/10/22 13:40:30;;;;;;;4.97;0.93;;;;;;;20.13;79.40;100479.19;8447378;27;20420;-49
2022/10/22 13:44:31;;;;;;;7.00;1.00;;;;;;;20.08;80.23;100484.41;8445874;28;20035;-50
2022/10/22 13:48:31;;;;;;;5.45;1.00;;;;;;;20.29;79.68;100465.09;8433893;27;20039;-52
2022/10/22 13:52:37;;;;;;;5.18;0.88;;;;;;;20.39;77.40;100471.91;8432055;28;20039;-52
2022/10/22 13:56:38;;;;;;;3.60;1.10;;;;;;;20.14;79.83;100475.38;8426671;28;20109;-49
2022/10/22 14:00:41;;;;;;;5.70;1.90;;;;;;;20.01;78.70;100472.53;8429566;28;20039;-50
2022/10/22 14:04:41;;;;;;;8.15;3.17;;;;;;;19.88;79.60;100478.78;8445920;27;20530;-52
2022/10/22 14:08:45;;;;;;;17.83;8.13;;;;;;;20.06;79.65;100490.09;8445461;28;20108;-49
2022/10/22 14:12:46;;;;;;;10.90;4.35;;;;;;;20.23;78.45;100482.41;8444499;28;20420;-47
2022/10/22 14:16:47;;;;;;;13.30;3.58;;;;;;;20.16;79.94;100484.28;8446072;28;20268;-50
2022/10/22 14:20:47;;;;;;;3.05;0.75;;;;;;;20.23;77.85;100482.41;8444502;28;20524;-48
2022/10/22 14:24:50;;;;;;;3.78;1.50;;;;;;;20.32;77.84;100494.91;8452862;28;20028;-50
2022/10/22 14:28:50;;;;;;;1.98;0.70;;;;;;;20.35;78.22;100489.88;8444728;27;20044;-48
2022/10/22 14:32:51;;;;;;;6.68;0.65;;;;;;;20.17;79.24;100483.22;8437012;27;20066;-47
2022/10/22 14:36:52;;;;;;;2.75;0.63;;;;;;;20.02;78.65;100479.72;8423758;28;20047;-49
2022/10/22 14:40:53;;;;;;;2.15;0.70;;;;;;;20.06;79.33;100481.03;8422024;28;20050;-48
2022/10/22 14:44:54;;;;;;;5.25;0.95;;;;;;;20.00;80.18;100476.34;8419549;28;20039;-50
2022/10/22 14:48:54;;;;;;;3.17;0.80;;;;;;;19.97;79.73;100485.81;8422523;28;20036;-49
2022/10/22 14:52:57;;;;;;;3.28;0.80;;;;;;;19.96;81.00;100486.00;8421999;28;20063;-50
2022/10/22 14:56:58;;;;;;;4.53;0.73;;;;;;;19.92;80.96;100484.72;8412344;28;20036;-50
2022/10/22 15:01:01;;;;;;;6.80;1.23;;;;;;;19.94;81.29;100485.38;8423254;28;20169;-49
2022/10/22 15:05:02;;;;;;;5.43;1.33;;;;;;;19.93;81.58;100486.41;8423139;28;20047;-49
2022/10/22 15:09:02;;;;;;;3.33;1.17;;;;;;;19.82;81.79;100487.81;8421283;28;20063;-51
2022/10/22 15:13:03;;;;;;;6.00;2.22;;;;;;;19.71;82.17;100487.53;8421063;28;20485;-50
2022/10/22 15:17:03;;;;;;;9.15;2.15;;;;;;;19.72;82.08;100491.97;8422372;28;20032;-50
2022/10/22 15:21:07;;;;;;;6.55;0.90;;;;;;;19.76;80.29;100496.84;8384876;28;20224;-49
2022/10/22 15:25:09;;;;;;;4.88;0.80;;;;;;;19.57;80.97;100491.25;8403581;28;20035;-51
2022/10/22 15:29:09;;;;;;;7.38;1.25;;;;;;;19.63;81.83;100501.38;8422206;28;20144;-49
2022/10/22 15:33:10;;;;;;;3.38;1.10;;;;;;;19.42;83.67;100505.88;8420455;28;20412;-49
2022/10/22 15:37:12;;;;;;;3.03;0.85;;;;;;;19.42;84.17;100499.53;8414289;28;20105;-48
2022/10/22 15:41:12;;;;;;;4.38;0.85;;;;;;;19.39;84.98;100500.78;8418643;28;20084;-49
2022/10/22 15:45:14;;;;;;;5.40;1.10;;;;;;;19.28;85.26;100504.06;8420074;28;20036;-49
2022/10/22 15:49:16;;;;;;;8.00;1.25;;;;;;;19.28;86.18;100509.53;8420556;28;20028;-53
2022/10/22 15:53:16;;;;;;;6.35;0.93;;;;;;;19.26;85.96;100510.75;8419722;28;20032;-49
2022/10/22 15:57:17;;;;;;;8.30;1.55;;;;;;;19.28;83.15;100490.34;8415423;28;20061;-49
2022/10/22 16:01:18;;;;;;;7.03;1.50;;;;;;;19.25;83.24;100495.34;8418184;28;20736;-52
2022/10/22 16:05:18;;;;;;;5.15;1.52;;;;;;;19.08;85.79;100503.00;8419295;28;20059;-51
2022/10/22 16:09:23;;;;;;;3.88;0.90;;;;;;;18.93;87.46;100502.19;8420207;28;20123;-49
2022/10/22 16:13:25;;;;;;;5.70;1.70;;;;;;;18.88;88.52;100501.94;8420006;28;20043;-52
2022/10/22 16:17:25;;;;;;;9.20;3.90;;;;;;;18.67;89.08;100504.63;8419891;28;20338;-49
2022/10/22 16:21:26;;;;;;;14.35;4.53;;;;;;;18.62;89.07;100495.31;8417455;28;20585;-49
2022/10/22 16:25:27;;;;;;;9.00;3.65;;;;;;;18.50;89.19;100494.97;8416140;28;20040;-52
2022/10/22 16:29:28;;;;;;;17.98;8.05;;;;;;;18.34;90.18;100495.16;8418711;28;20046;-50
2022/10/22 16:33:28;;;;;;;9.07;4.13;;;;;;;18.18;94.63;100510.94;8411844;28;20048;-49
2022/10/22 16:37:30;;;;;;;6.05;2.20;;;;;;;17.96;96.76;100499.03;8410925;28;20508;-50
2022/10/22 16:41:34;;;;;;;5.07;1.50;;;;;;;17.55;100.00;100519.63;8415653;28;20464;-48
2022/10/22 16:45:34;;;;;;;7.43;2.55;;;;;;;17.88;96.10;100518.28;8416372;28;20035;-49
2022/10/22 16:49:35;;;;;;;3.55;1.75;;;;;;;18.00;94.42;100521.41;8423369;28;20036;-49
2022/10/22 16:53:36;;;;;;;5.30;2.83;;;;;;;17.89;95.70;100525.44;8451711;27;20028;-49
2022/10/22 16:57:36;;;;;;;10.65;3.95;;;;;;;17.73;97.53;100522.88;8418278;28;20035;-51
2022/10/22 17:01:37;;;;;;;15.20;5.22;;;;;;;17.68;96.87;100528.06;8420154;28;20397;-50
2022/10/22 17:05:38;;;;;;;11.32;4.95;;;;;;;17.48;97.50;100526.88;8416942;28;20280;-49
2022/10/22 17:09:38;;;;;;;14.20;4.63;;;;;;;17.53;97.80;100530.75;8418432;28;20518;-49
2022/10/22 17:13:40;;;;;;;10.68;4.45;;;;;;;17.44;98.86;100533.75;8415756;28;20024;-48
2022/10/22 17:17:41;;;;;;;10.10;5.22;;;;;;;17.29;100.00;100532.81;8418276;28;20078;-52
2022/10/22 17:21:42;;;;;;;6.22;3.20;;;;;;;16.92;100.00;100536.34;8417832;28;20039;-49
2022/10/22 17:25:43;;;;;;;8.15;3.38;;;;;;;16.94;100.00;100538.88;8417200;28;20527;-49
2022/10/22 17:29:44;;;;;;;5.90;3.38;;;;;;;17.05;100.00;100552.16;8415932;28;20040;-49
2022/10/22 17:33:46;;;;;;;9.65;3.50;;;;;;;17.14;100.00;100553.78;8394357;28;20171;-49
2022/10/22 17:37:46;;;;;;;6.13;2.25;;;;;;;17.19;100.00;100548.59;8414388;28;20044;-49
2022/10/22 17:41:47;;;;;;;4.90;2.40;;;;;;;17.18;100.00;100555.13;8409974;28;20047;-50
2022/10/22 17:45:48;;;;;;;9.00;4.03;;;;;;;17.02;100.00;100552.50;8413033;28;20036;-51
2022/10/22 17:49:49;;;;;;;10.10;3.58;;;;;;;16.97;100.00;100554.91;8416079;28;20059;-51
2022/10/22 17:53:50;;;;;;;13.55;5.68;;;;;;;16.92;100.00;100550.00;8416479;28;20047;-49
2022/10/22 17:57:50;;;;;;;14.32;6.57;;;;;;;16.87;100.00;100546.94;8415865;28;20666;-49
2022/10/22 18:01:52;;;;;;;10.93;4.00;;;;;;;16.79;100.00;100557.06;8398506;28;20174;-49
2022/10/22 18:05:53;;;;;;;13.15;4.15;;;;;;;16.62;100.00;100558.22;8397556;28;20393;-48
2022/10/22 18:09:54;;;;;;;11.38;3.90;;;;;;;16.56;100.00;100553.47;8418740;28;20044;-50
2022/10/22 18:13:55;;;;;;;7.28;4.22;;;;;;;16.33;100.00;100553.34;8420087;28;20859;-49
2022/10/22 18:17:56;;;;;;;9.20;3.58;;;;;;;16.25;100.00;100541.63;8417458;28;20043;-49
2022/10/22 18:21:57;;;;;;;8.82;4.22;;;;;;;16.14;100.00;100544.72;8424515;28;20040;-51
2022/10/22 18:25:58;;;;;;;9.20;4.22;;;;;;;15.97;100.00;100538.47;8422442;28;20036;-51
2022/10/22 18:29:58;;;;;;;8.80;3.83;;;;;;;15.79;100.00;100545.16;8421591;28;20032;-50
2022/10/22 18:33:59;;;;;;;8.65;2.53;;;;;;;15.84;100.00;100545.47;8421362;28;20396;-48
2022/10/22 18:37:59;;;;;;;7.25;3.58;;;;;;;15.87;100.00;100547.84;8419099;28;20036;-49
2022/10/22 18:42:05;;;;;;;11.65;4.90;;;;;;;15.80;100.00;100545.00;8419003;28;20139;-49
2022/10/22 18:46:06;;;;;;;16.88;5.15;;;;;;;15.78;100.00;100544.31;8407267;28;20409;-49
2022/10/22 18:50:08;;;;;;;10.43;5.53;;;;;;;15.55;100.00;100555.06;8388129;28;20043;-48
2022/10/22 18:54:09;;;;;;;10.45;5.13;;;;;;;15.52;100.00;100552.69;8388140;28;20040;-49
2022/10/22 18:58:09;;;;;;;14.18;5.13;;;;;;;15.40;100.00;100554.03;8386371;28;20515;-49
2022/10/22 19:02:10;;;;;;;12.38;5.30;;;;;;;15.32;100.00;100543.13;8387201;28;20047;-49